createdAt,value
2019-02-04T00:01:25.628Z,96.90
2019-02-04T00:04:32.915Z,97.19
2019-02-04T00:07:39.950Z,97.11
2019-02-04T00:10:46.874Z,97.08
2019-02-04T00:13:54.892Z,97.23
2019-02-04T00:17:01.987Z,97.35
2019-02-04T00:20:09.433Z,97.44
2019-02-04T00:23:16.405Z,97.50
2019-02-04T00:26:23.394Z,97.58
2019-02-04T00:29:30.486Z,97.52
2019-02-04T00:32:37.387Z,97.78
2019-02-04T00:35:44.298Z,97.67
2019-02-04T00:38:51.748Z,97.41
2019-02-04T00:41:58.691Z,97.46
2019-02-04T00:45:06.402Z,97.73
2019-02-04T00:48:14.714Z,97.72
2019-02-04T00:51:22.661Z,97.88
2019-02-04T00:54:29.599Z,97.83
2019-02-04T00:57:37.026Z,97.77
2019-02-04T01:00:44.014Z,97.67
2019-02-04T01:03:51.010Z,97.74
2019-02-04T01:06:58.250Z,97.48
2019-02-04T01:10:06.108Z,97.78
2019-02-04T01:13:13.611Z,97.68
2019-02-04T01:16:20.667Z,97.76
2019-02-04T01:19:27.708Z,97.86
2019-02-04T01:22:34.633Z,97.93
2019-02-04T01:25:41.970Z,97.73
2019-02-04T01:28:50.009Z,97.68
2019-02-04T01:31:57.296Z,97.89
2019-02-04T01:35:04.714Z,97.98
2019-02-04T01:38:11.780Z,97.96
2019-02-04T01:41:18.803Z,97.97
2019-02-04T01:44:25.746Z,98.04
2019-02-04T01:47:33.184Z,98.01
2019-02-04T01:50:40.740Z,98.01
2019-02-04T01:53:47.864Z,98.00
2019-02-04T01:56:54.876Z,97.79
2019-02-04T02:00:01.833Z,97.97
2019-02-04T02:03:08.774Z,97.70
2019-02-04T02:06:15.877Z,97.66
2019-02-04T02:09:24.712Z,97.59
2019-02-04T02:12:31.810Z,97.37
2019-02-04T02:15:40.404Z,97.56
2019-02-04T02:18:48.272Z,97.74
2019-02-04T02:21:55.197Z,97.79
2019-02-04T02:25:02.426Z,97.99
2019-02-04T02:28:09.664Z,97.66
2019-02-04T02:31:16.586Z,97.61
2019-02-04T02:34:23.550Z,97.63
2019-02-04T02:37:30.553Z,97.62
2019-02-04T02:40:37.600Z,97.38
2019-02-04T02:43:44.761Z,97.48
2019-02-04T02:46:51.722Z,97.56
2019-02-04T02:49:58.981Z,97.60
2019-02-04T02:53:06.362Z,97.59
2019-02-04T02:56:16.341Z,97.48
2019-02-04T02:59:23.317Z,97.34
2019-02-04T03:02:30.283Z,97.38
2019-02-04T03:05:37.690Z,97.50
2019-02-04T03:08:44.612Z,97.54
2019-02-04T03:11:51.650Z,97.60
2019-02-04T03:14:58.691Z,97.81
2019-02-04T03:18:05.730Z,97.64
2019-02-04T03:21:12.741Z,97.72
2019-02-04T03:24:19.863Z,97.98
2019-02-04T03:27:26.821Z,97.42
2019-02-04T03:30:36.554Z,97.76
2019-02-04T03:33:43.695Z,97.66
2019-02-04T03:36:50.887Z,98.11
2019-02-04T03:39:57.903Z,97.85
2019-02-04T03:43:05.301Z,98.48
2019-02-04T03:46:12.366Z,98.78
2019-02-04T03:49:19.264Z,97.80
2019-02-04T03:52:26.235Z,97.93
2019-02-04T03:55:34.325Z,97.14
2019-02-04T03:58:43.093Z,97.64
2019-02-04T04:01:50.382Z,97.64
2019-02-04T04:04:57.595Z,98.09
2019-02-04T04:08:04.483Z,97.68
2019-02-04T04:11:11.530Z,97.21
2019-02-04T04:14:18.450Z,97.41
2019-02-04T04:17:25.432Z,97.35
2019-02-04T04:20:32.408Z,97.92
2019-02-04T04:23:39.550Z,98.18
2019-02-04T04:26:46.466Z,98.09
2019-02-04T04:29:54.094Z,97.91
2019-02-04T04:33:01.042Z,97.93
2019-02-04T04:36:10.118Z,97.70
2019-02-04T04:39:17.430Z,97.73
2019-02-04T04:42:24.492Z,98.10
2019-02-04T04:45:31.459Z,97.87
2019-02-04T04:48:38.557Z,97.67
2019-02-04T04:51:46.795Z,97.32
2019-02-04T04:54:54.070Z,97.01
2019-02-04T04:58:01.435Z,97.29
2019-02-04T05:01:08.565Z,97.29
2019-02-04T05:04:15.603Z,97.18
2019-02-04T05:07:22.516Z,97.51
2019-02-04T05:10:29.513Z,97.69
2019-02-04T05:13:36.511Z,96.86
2019-02-04T05:16:43.571Z,96.79
2019-02-04T05:19:50.790Z,97.38
2019-02-04T05:22:58.209Z,97.85
2019-02-04T05:26:05.255Z,97.37
2019-02-04T05:29:12.205Z,97.84
2019-02-04T05:32:19.231Z,97.34
2019-02-04T05:35:26.587Z,97.19
2019-02-04T05:38:33.615Z,97.12
2019-02-04T05:41:42.896Z,97.28
2019-02-04T05:44:49.562Z,97.10
2019-02-04T05:47:56.608Z,96.54
2019-02-04T05:51:03.585Z,96.80
2019-02-04T05:54:10.534Z,96.98
2019-02-04T05:57:17.560Z,97.07
2019-02-04T06:00:35.388Z,97.17
2019-02-04T06:03:42.391Z,96.58
2019-02-04T06:06:49.537Z,96.26
2019-02-04T06:09:56.767Z,96.18
2019-02-04T06:13:03.862Z,95.90
2019-02-04T06:16:10.828Z,96.45
2019-02-04T06:19:17.769Z,96.85
2019-02-04T06:22:25.003Z,97.23
2019-02-04T06:25:31.975Z,97.11
2019-02-04T06:28:38.990Z,97.20
2019-02-04T06:31:46.017Z,97.86
2019-02-04T06:34:53.194Z,98.11
2019-02-04T06:38:00.101Z,98.14
2019-02-04T06:41:07.109Z,98.56
2019-02-04T06:44:16.633Z,96.23
2019-02-04T06:47:23.635Z,97.50
2019-02-04T06:50:30.743Z,96.05
2019-02-04T06:53:37.731Z,96.20
2019-02-04T06:56:45.063Z,95.47
2019-02-04T06:59:52.193Z,95.65
2019-02-04T07:03:00.793Z,95.85
2019-02-04T07:06:07.830Z,94.99
2019-02-04T07:09:14.971Z,93.95
2019-02-04T07:12:21.990Z,94.20
2019-02-04T07:15:28.955Z,94.28
2019-02-04T07:18:36.362Z,94.23
2019-02-04T07:21:43.498Z,92.66
2019-02-04T07:24:50.796Z,92.88
2019-02-04T07:27:57.994Z,93.66
2019-02-04T07:31:05.006Z,93.08
2019-02-04T07:34:12.083Z,92.72
2019-02-04T07:37:19.228Z,95.07
2019-02-04T07:40:29.524Z,92.75
2019-02-04T07:43:36.889Z,94.72
2019-02-04T07:46:44.055Z,93.80
2019-02-04T07:49:51.016Z,91.77
2019-02-04T07:52:57.979Z,96.94
2019-02-04T07:56:05.196Z,94.82
2019-02-04T07:59:12.125Z,92.61
2019-02-04T08:02:19.189Z,93.03
2019-02-04T08:05:27.475Z,92.30
2019-02-04T08:08:34.472Z,91.84
2019-02-04T08:11:45.484Z,90.38
2019-02-04T08:14:52.738Z,90.50
2019-02-04T08:17:59.726Z,91.26
2019-02-04T08:21:06.695Z,90.24
2019-02-04T08:24:13.791Z,90.41
2019-02-04T08:27:20.785Z,91.09
2019-02-04T08:30:33.696Z,91.08
2019-02-04T08:33:44.130Z,90.58
2019-02-04T08:36:51.311Z,91.58
2019-02-04T08:39:58.393Z,91.12
2019-02-04T08:43:05.499Z,91.52
2019-02-04T08:46:12.450Z,91.26
2019-02-04T08:49:19.753Z,91.19
2019-02-04T08:52:26.753Z,91.76
2019-02-04T08:55:33.707Z,90.03
2019-02-04T08:58:43.940Z,90.91
2019-02-04T09:01:50.854Z,90.59
2019-02-04T09:04:57.868Z,90.25
2019-02-04T09:08:06.175Z,89.63
2019-02-04T09:11:13.584Z,90.83
2019-02-04T09:14:20.630Z,90.28
2019-02-04T09:17:27.709Z,89.84
2019-02-04T09:20:34.755Z,90.15
2019-02-04T09:23:42.038Z,89.29
2019-02-04T09:26:49.159Z,89.23
2019-02-04T09:29:56.439Z,88.87
2019-02-04T09:33:03.987Z,88.61
2019-02-04T09:36:10.982Z,88.64
2019-02-04T09:39:20.920Z,88.45
2019-02-04T09:42:27.928Z,88.08
2019-02-04T09:45:38.751Z,87.69
2019-02-04T09:48:45.930Z,87.53
2019-02-04T09:51:52.945Z,87.32
2019-02-04T09:55:00.463Z,86.82
2019-02-04T09:58:07.566Z,87.28
2019-02-04T10:01:14.878Z,87.50
2019-02-04T10:04:21.833Z,87.55
2019-02-04T10:07:28.807Z,87.03
2019-02-04T10:10:37.754Z,87.10
2019-02-04T10:13:45.242Z,86.74
2019-02-04T10:16:52.180Z,86.56
2019-02-04T10:19:59.143Z,86.26
2019-02-04T10:23:07.144Z,85.95
2019-02-04T10:26:14.203Z,85.90
2019-02-04T10:29:22.565Z,85.95
2019-02-04T10:32:29.509Z,86.31
2019-02-04T10:35:36.553Z,85.81
2019-02-04T10:38:43.910Z,85.63
2019-02-04T10:41:51.185Z,85.59
2019-02-04T10:44:58.170Z,85.31
2019-02-04T10:48:05.229Z,85.06
2019-02-04T10:51:12.362Z,85.24
2019-02-04T10:54:19.445Z,85.03
2019-02-04T10:57:26.520Z,84.92
2019-02-04T11:00:35.036Z,85.37
2019-02-04T11:03:42.452Z,84.76
2019-02-04T11:06:49.648Z,84.42
2019-02-04T11:09:56.664Z,85.11
2019-02-04T11:13:06.976Z,83.49
2019-02-04T11:16:13.981Z,82.99
2019-02-04T11:19:21.341Z,82.41
2019-02-04T11:22:28.427Z,81.52
2019-02-04T11:25:35.425Z,80.86
2019-02-04T11:28:42.446Z,83.03
2019-02-04T11:31:55.479Z,82.55
2019-02-04T11:35:03.655Z,82.67
2019-02-04T11:38:10.735Z,79.58
2019-02-04T11:41:17.828Z,79.83
2019-02-04T11:44:24.857Z,81.13
2019-02-04T11:47:31.950Z,80.94
2019-02-04T11:50:40.101Z,81.12
2019-02-04T11:53:47.414Z,80.14
2019-02-04T11:56:58.388Z,80.53
2019-02-04T12:00:07.413Z,79.19
2019-02-04T12:03:16.361Z,79.47
2019-02-04T12:06:23.621Z,79.29
2019-02-04T12:09:30.622Z,79.56
2019-02-04T12:12:39.217Z,78.40
2019-02-04T12:15:49.084Z,77.93
2019-02-04T12:18:56.434Z,78.02
2019-02-04T12:22:03.475Z,77.76
2019-02-04T12:25:13.175Z,77.00
2019-02-04T12:28:20.098Z,77.36
2019-02-04T12:31:27.156Z,77.14
2019-02-04T12:34:34.169Z,77.01
2019-02-04T12:37:41.384Z,77.34
2019-02-04T12:40:49.898Z,75.72
2019-02-04T12:43:59.519Z,77.13
2019-02-04T12:47:07.065Z,76.59
2019-02-04T12:50:14.400Z,76.05
2019-02-04T12:53:21.346Z,77.04
2019-02-04T12:56:28.335Z,78.11
2019-02-04T12:59:35.603Z,76.02
2019-02-04T13:02:42.503Z,75.28
2019-02-04T13:05:53.055Z,74.84
2019-02-04T13:09:00.139Z,76.12
2019-02-04T13:12:09.165Z,75.90
2019-02-04T13:15:19.812Z,76.53
2019-02-04T13:18:27.103Z,75.69
2019-02-04T13:21:45.108Z,75.06
2019-02-04T13:24:45.916Z,74.98
2019-02-04T13:27:52.997Z,75.84
2019-02-04T13:31:00.031Z,75.42
2019-02-04T13:34:07.290Z,76.31
2019-02-04T13:37:14.345Z,77.25
2019-02-04T13:40:25.164Z,77.08
2019-02-04T13:43:32.098Z,76.80
2019-02-04T13:46:39.112Z,77.07
2019-02-04T13:49:48.295Z,78.20
2019-02-04T13:52:56.868Z,77.09
2019-02-04T13:56:04.135Z,78.50
2019-02-04T13:59:11.346Z,77.49
2019-02-04T14:02:18.508Z,77.24
2019-02-04T14:05:25.714Z,76.80
2019-02-04T14:08:32.744Z,76.86
2019-02-04T14:11:41.671Z,78.31
2019-02-04T14:14:48.381Z,79.17
2019-02-04T14:17:55.407Z,77.34
2019-02-04T14:21:02.651Z,77.15
2019-02-04T14:24:09.580Z,75.96
2019-02-04T14:27:17.777Z,78.40
2019-02-04T14:30:39.693Z,77.57
2019-02-04T14:33:46.696Z,77.75
2019-02-04T14:36:53.936Z,76.93
2019-02-04T14:40:18.073Z,77.83
2019-02-04T14:43:38.194Z,77.82
2019-02-04T14:47:18.240Z,79.83
2019-02-04T14:51:11.045Z,79.43
2019-02-04T14:55:13.668Z,79.54
2019-02-04T14:58:40.886Z,78.84
2019-02-04T15:02:47.423Z,78.51
2019-02-04T15:06:25.701Z,79.42
2019-02-04T15:10:21.444Z,79.58
2019-02-04T15:14:11.709Z,81.34
2019-02-04T15:17:40.290Z,81.28
2019-02-04T15:21:45.934Z,81.72
2019-02-04T15:25:35.520Z,82.29
2019-02-04T15:29:33.637Z,82.88
2019-02-04T15:33:41.937Z,84.15
2019-02-04T15:37:23.281Z,82.58
2019-02-04T15:40:45.265Z,80.92
2019-02-04T15:44:26.052Z,82.47
2019-02-04T15:47:54.982Z,84.16
2019-02-04T15:51:14.937Z,84.42
2019-02-04T15:54:21.776Z,82.96
2019-02-04T15:57:30.367Z,85.15
2019-02-04T16:00:40.746Z,83.61
2019-02-04T16:03:47.505Z,84.68
2019-02-04T16:06:55.574Z,83.70
2019-02-04T16:10:02.605Z,84.18
2019-02-04T16:13:09.559Z,84.36
2019-02-04T16:16:16.608Z,82.75
2019-02-04T16:19:23.871Z,83.25
2019-02-04T16:22:31.716Z,82.58
2019-02-04T16:25:38.705Z,82.78
2019-02-04T16:28:45.754Z,83.01
2019-02-04T16:31:53.235Z,82.85
2019-02-04T16:35:00.389Z,82.25
2019-02-04T16:38:15.641Z,83.08
2019-02-04T16:41:24.236Z,82.25
2019-02-04T16:44:31.582Z,82.11
2019-02-04T16:47:38.842Z,82.15
2019-02-04T16:50:58.949Z,81.34
2019-02-04T16:53:55.007Z,82.06
2019-02-04T16:57:01.902Z,80.50
2019-02-04T17:00:11.985Z,81.52
2019-02-04T17:03:19.064Z,82.28
2019-02-04T17:06:26.140Z,81.69
2019-02-04T17:09:33.270Z,82.00
2019-02-04T17:12:40.689Z,81.55
2019-02-04T17:15:48.751Z,82.89
2019-02-04T17:18:55.719Z,83.70
2019-02-04T17:22:03.073Z,82.41
2019-02-04T17:25:10.328Z,83.04
2019-02-04T17:28:18.623Z,82.37
2019-02-04T17:31:27.273Z,82.69
2019-02-04T17:34:36.896Z,82.27
2019-02-04T17:37:46.283Z,82.31
2019-02-04T17:40:53.656Z,82.10
2019-02-04T17:44:00.809Z,82.64
2019-02-04T17:47:07.766Z,82.92
2019-02-04T17:50:17.667Z,83.46
2019-02-04T17:53:33.870Z,83.75
2019-02-04T17:56:33.308Z,82.30
2019-02-04T17:59:40.649Z,83.12
2019-02-04T18:02:48.065Z,82.18
2019-02-04T18:05:56.035Z,82.15
2019-02-04T18:09:04.316Z,80.90
2019-02-04T18:12:12.369Z,82.28
2019-02-04T18:15:21.624Z,81.62
2019-02-04T18:18:28.774Z,83.90
2019-02-04T18:21:35.897Z,83.18
2019-02-04T18:24:43.106Z,83.29
2019-02-04T18:27:51.823Z,81.65
2019-02-04T18:30:59.199Z,82.71
2019-02-04T18:34:07.049Z,83.66
2019-02-04T18:37:14.103Z,82.79
2019-02-04T18:40:21.224Z,82.51
2019-02-04T18:43:28.929Z,83.61
2019-02-04T18:46:35.996Z,85.13
2019-02-04T18:49:43.143Z,85.53
2019-02-04T18:52:50.166Z,84.98
2019-02-04T18:55:57.209Z,84.64
2019-02-04T18:59:04.646Z,85.27
2019-02-04T19:02:11.540Z,85.40
2019-02-04T19:05:18.722Z,84.66
2019-02-04T19:08:27.924Z,83.11
2019-02-04T19:11:36.055Z,86.27
2019-02-04T19:14:43.165Z,83.16
2019-02-04T19:17:53.554Z,82.72
2019-02-04T19:27:57.146Z,83.61
2019-02-04T19:31:32.464Z,83.48
2019-02-04T19:34:39.648Z,83.83
2019-02-04T19:37:46.626Z,83.64
2019-02-04T19:40:53.580Z,86.45
2019-02-04T19:44:00.540Z,86.04
2019-02-04T19:47:08.149Z,84.13
2019-02-04T19:50:28.999Z,84.47
2019-02-04T19:53:35.955Z,84.51
2019-02-04T19:56:45.978Z,84.40
2019-02-04T19:59:53.007Z,83.79
2019-02-04T20:02:59.942Z,84.27
2019-02-04T20:06:07.717Z,85.60
2019-02-04T20:09:14.679Z,85.47
2019-02-04T20:12:21.604Z,86.54
2019-02-04T20:15:29.159Z,84.53
2019-02-04T20:18:36.995Z,86.62
2019-02-04T20:21:45.656Z,84.51
2019-02-04T20:24:52.768Z,84.70
2019-02-04T20:28:00.005Z,84.00
2019-02-04T20:31:07.656Z,83.93
2019-02-04T20:34:16.727Z,83.86
2019-02-04T20:37:23.350Z,83.03
2019-02-04T20:40:31.868Z,83.13
2019-02-04T20:43:39.254Z,82.63
2019-02-04T20:46:46.261Z,82.65
2019-02-04T20:49:53.232Z,82.90
2019-02-04T20:53:00.103Z,82.94
2019-02-04T20:56:07.010Z,82.91
2019-02-04T20:59:13.888Z,82.47
2019-02-04T21:02:20.804Z,82.71
2019-02-04T21:05:28.446Z,83.34
2019-02-04T21:08:38.482Z,82.84
2019-02-04T21:11:45.803Z,82.72
2019-02-04T21:14:52.927Z,82.29
2019-02-04T21:18:00.258Z,81.90
2019-02-04T21:21:07.402Z,82.71
2019-02-04T21:24:14.354Z,81.61
2019-02-04T21:27:21.657Z,81.37
2019-02-04T21:30:38.399Z,81.23
2019-02-04T21:33:45.694Z,81.07
2019-02-04T21:36:52.552Z,81.35
2019-02-04T21:39:59.740Z,81.70
2019-02-04T21:43:06.839Z,81.21
2019-02-04T21:46:13.754Z,80.04
2019-02-04T21:49:20.640Z,81.01
2019-02-04T21:52:31.232Z,81.06
2019-02-04T21:55:39.961Z,80.53
2019-02-04T21:58:47.399Z,79.85
2019-02-04T22:01:55.987Z,80.46
2019-02-04T22:05:02.905Z,80.59
2019-02-04T22:08:09.866Z,81.05
2019-02-04T22:11:17.156Z,80.90
2019-02-04T22:14:24.371Z,81.01
2019-02-04T22:17:34.401Z,81.11
2019-02-04T22:20:41.414Z,81.41
2019-02-04T22:23:51.094Z,81.31
2019-02-04T22:26:58.170Z,81.59
2019-02-04T22:30:06.909Z,81.33
2019-02-04T22:33:14.172Z,81.57
2019-02-04T22:36:21.571Z,80.89
2019-02-04T22:39:28.434Z,80.78
2019-02-04T22:42:35.346Z,81.28
2019-02-04T22:45:42.224Z,81.37
2019-02-04T22:48:52.330Z,81.20
2019-02-04T22:51:59.334Z,81.82
2019-02-04T22:55:06.879Z,81.59
2019-02-04T22:58:14.350Z,81.00
2019-02-04T23:01:51.367Z,81.73
2019-02-04T23:04:58.224Z,81.21
2019-02-04T23:08:05.430Z,81.26
2019-02-04T23:11:12.302Z,80.63
2019-02-04T23:14:19.241Z,81.62
2019-02-04T23:17:26.036Z,80.97
2019-02-04T23:20:33.029Z,82.14
2019-02-04T23:23:39.902Z,82.64
2019-02-04T23:26:54.522Z,83.12
2019-02-04T23:30:01.420Z,82.76
2019-02-04T23:33:08.544Z,82.58
2019-02-04T23:36:15.418Z,83.36
2019-02-04T23:39:22.666Z,83.86
2019-02-04T23:42:29.530Z,82.75
2019-02-04T23:45:36.377Z,84.11
2019-02-04T23:48:43.253Z,83.91
2019-02-04T23:51:50.143Z,84.15
2019-02-04T23:54:57.112Z,85.89
2019-02-04T23:58:04.990Z,85.81
